createdAt,value
2023-06-19T00:00:58.314Z,10.84
2023-06-19T00:01:58.300Z,10.24
2023-06-19T00:02:58.462Z,10.57
2023-06-19T00:03:58.547Z,11.16
2023-06-19T00:04:58.516Z,10.38
2023-06-19T00:05:58.611Z,11.54
2023-06-19T00:06:58.753Z,10.11
2023-06-19T00:07:58.778Z,10.02
2023-06-19T00:08:58.866Z,10.24
2023-06-19T00:09:58.976Z,10.19
2023-06-19T00:10:58.997Z,11.07
2023-06-19T00:11:59.109Z,11.29
2023-06-19T00:12:59.188Z,10.55
2023-06-19T00:13:59.842Z,10.22
2023-06-19T00:14:59.401Z,10.21
2023-06-19T00:15:59.485Z,10.50
2023-06-19T00:16:59.549Z,10.63
2023-06-19T00:17:59.827Z,10.95
2023-06-19T00:18:59.696Z,10.58
2023-06-19T00:19:59.849Z,11.44
2023-06-19T00:20:59.921Z,11.12
2023-06-19T00:21:59.980Z,10.29
2023-06-19T00:23:00.049Z,10.92
2023-06-19T00:24:00.140Z,11.03
2023-06-19T00:25:00.277Z,11.28
2023-06-19T00:26:00.275Z,11.33
2023-06-19T00:27:00.360Z,9.92
2023-06-19T00:28:00.446Z,11.17
2023-06-19T00:29:00.506Z,11.86
2023-06-19T00:30:00.577Z,10.70
2023-06-19T00:31:01.332Z,11.41
2023-06-19T00:32:00.855Z,10.13
2023-06-19T00:33:00.931Z,11.30
2023-06-19T00:34:00.999Z,10.99
2023-06-19T00:35:01.107Z,11.31
2023-06-19T00:36:01.180Z,9.61
2023-06-19T00:37:01.292Z,10.55
2023-06-19T00:38:01.366Z,10.58
2023-06-19T00:39:01.467Z,10.19
2023-06-19T00:40:01.555Z,11.53
2023-06-19T00:41:01.622Z,12.11
2023-06-19T00:42:01.841Z,11.33
2023-06-19T00:43:01.860Z,11.76
2023-06-19T00:44:01.952Z,11.64
2023-06-19T00:45:02.042Z,11.50
2023-06-19T00:46:02.195Z,10.42
2023-06-19T00:47:02.230Z,11.45
2023-06-19T00:48:02.466Z,10.66
2023-06-19T00:49:02.401Z,10.25
2023-06-19T00:50:02.526Z,10.87
2023-06-19T00:51:02.600Z,10.11
2023-06-19T00:52:02.696Z,11.61
2023-06-19T00:53:02.796Z,11.27
2023-06-19T00:54:02.892Z,10.40
2023-06-19T00:55:02.993Z,10.67
2023-06-19T00:56:03.095Z,11.18
2023-06-19T00:57:03.204Z,11.75
2023-06-19T00:58:03.424Z,10.64
2023-06-19T00:59:03.402Z,10.18
2023-06-19T01:00:03.504Z,11.23
2023-06-19T01:01:08.693Z,10.99
2023-06-19T01:02:04.704Z,10.79
2023-06-19T01:03:03.766Z,11.85
2023-06-19T01:04:03.932Z,10.99
2023-06-19T01:05:03.851Z,10.72
2023-06-19T01:06:03.910Z,10.26
2023-06-19T01:07:03.963Z,10.38
2023-06-19T01:08:04.047Z,10.71
2023-06-19T01:09:04.075Z,11.33
2023-06-19T01:10:04.156Z,11.09
2023-06-19T01:11:11.814Z,11.29
2023-06-19T01:12:05.281Z,10.57
2023-06-19T01:13:04.344Z,11.88
2023-06-19T01:14:04.403Z,11.31
2023-06-19T01:15:04.479Z,10.77
2023-06-19T01:16:04.551Z,10.84
2023-06-19T01:17:04.652Z,11.77
2023-06-19T01:18:04.821Z,10.26
2023-06-19T01:19:04.765Z,11.62
2023-06-19T01:20:04.845Z,11.55
2023-06-19T01:21:04.914Z,10.75
2023-06-19T01:22:05.353Z,11.42
2023-06-19T01:23:05.070Z,11.40
2023-06-19T01:24:05.347Z,12.24
2023-06-19T01:25:05.315Z,11.94
2023-06-19T01:26:05.445Z,10.88
2023-06-19T01:27:05.551Z,10.99
2023-06-19T01:28:05.685Z,10.60
2023-06-19T01:29:05.849Z,11.31
2023-06-19T01:30:05.908Z,11.14
2023-06-19T01:31:06.022Z,11.26
2023-06-19T01:32:06.347Z,12.18
2023-06-19T01:33:06.353Z,11.60
2023-06-19T01:34:06.399Z,12.08
2023-06-19T01:35:06.533Z,12.13
2023-06-19T01:36:06.674Z,12.48
2023-06-19T01:37:06.807Z,12.54
2023-06-19T01:38:06.946Z,12.42
2023-06-19T01:39:07.078Z,12.63
2023-06-19T01:40:07.206Z,12.25
2023-06-19T01:41:07.321Z,11.53
2023-06-19T01:42:07.437Z,11.28
2023-06-19T01:43:07.560Z,12.25
2023-06-19T01:44:07.693Z,11.47
2023-06-19T01:45:07.834Z,12.49
2023-06-19T01:46:07.985Z,11.94
2023-06-19T01:47:08.051Z,11.97
2023-06-19T01:48:08.206Z,11.80
2023-06-19T01:49:08.299Z,12.31
2023-06-19T01:50:09.367Z,11.58
2023-06-19T01:51:08.616Z,12.38
2023-06-19T01:52:08.856Z,13.02
2023-06-19T01:53:08.769Z,12.14
2023-06-19T01:54:08.874Z,12.00
2023-06-19T01:55:08.981Z,12.22
2023-06-19T01:56:09.093Z,13.47
2023-06-19T01:57:09.214Z,12.51
2023-06-19T01:58:09.324Z,11.71
2023-06-19T01:59:09.439Z,12.07
2023-06-19T02:00:09.572Z,11.50
2023-06-19T02:01:09.679Z,11.55
2023-06-19T02:02:09.839Z,11.40
2023-06-19T02:03:10.049Z,12.17
2023-06-19T02:04:10.073Z,11.92
2023-06-19T02:05:10.193Z,12.26
2023-06-19T02:06:10.319Z,11.73
2023-06-19T02:07:10.471Z,11.98
2023-06-19T02:08:10.585Z,13.79
2023-06-19T02:09:11.365Z,12.59
2023-06-19T02:10:10.910Z,13.02
2023-06-19T02:11:10.980Z,12.00
2023-06-19T02:12:11.117Z,12.45
2023-06-19T02:13:11.257Z,11.78
2023-06-19T02:14:11.374Z,12.09
2023-06-19T02:15:11.581Z,12.59
2023-06-19T02:16:11.673Z,11.62
2023-06-19T02:17:11.769Z,12.75
2023-06-19T02:18:11.885Z,12.05
2023-06-19T02:19:12.034Z,12.20
2023-06-19T02:20:12.192Z,11.35
2023-06-19T02:21:12.331Z,12.27
2023-06-19T02:22:12.477Z,12.57
2023-06-19T02:23:12.628Z,11.46
2023-06-19T02:24:12.784Z,12.67
2023-06-19T02:25:12.905Z,12.67
2023-06-19T02:26:13.042Z,12.54
2023-06-19T02:27:13.186Z,12.41
2023-06-19T02:28:13.330Z,12.71
2023-06-19T02:29:13.516Z,13.58
2023-06-19T02:30:13.609Z,11.90
2023-06-19T02:31:13.740Z,12.26
2023-06-19T02:32:13.879Z,12.33
2023-06-19T02:33:14.000Z,11.15
2023-06-19T02:34:14.134Z,12.87
2023-06-19T02:35:14.260Z,13.30
2023-06-19T02:36:14.385Z,12.66
2023-06-19T02:37:14.531Z,12.03
2023-06-19T02:38:14.655Z,10.91
2023-06-19T02:39:14.848Z,12.01
2023-06-19T02:40:14.945Z,12.40
2023-06-19T02:41:15.068Z,11.67
2023-06-19T02:42:15.208Z,11.44
2023-06-19T02:43:15.331Z,11.43
2023-06-19T02:44:15.453Z,12.09
2023-06-19T02:45:15.581Z,12.63
2023-06-19T02:46:15.739Z,12.72
2023-06-19T02:47:15.813Z,12.34
2023-06-19T02:48:15.926Z,11.03
2023-06-19T02:49:16.044Z,12.66
2023-06-19T02:50:16.154Z,12.23
2023-06-19T02:51:16.250Z,12.19
2023-06-19T02:52:16.356Z,12.74
2023-06-19T02:53:16.454Z,11.45
2023-06-19T02:54:16.549Z,13.06
2023-06-19T02:55:16.671Z,12.89
2023-06-19T02:56:16.782Z,11.77
2023-06-19T02:57:16.904Z,13.22
2023-06-19T02:58:17.025Z,12.88
2023-06-19T02:59:17.156Z,12.15
2023-06-19T03:00:17.279Z,12.11
2023-06-19T03:01:17.445Z,12.27
2023-06-19T03:02:17.476Z,12.38
2023-06-19T03:03:17.680Z,12.23
2023-06-19T03:04:17.697Z,12.04
2023-06-19T03:05:17.761Z,12.69
2023-06-19T03:06:17.888Z,12.40
2023-06-19T03:07:18.082Z,12.80
2023-06-19T03:08:18.210Z,12.75
2023-06-19T03:09:18.342Z,12.34
2023-06-19T03:10:18.473Z,11.14
2023-06-19T03:11:18.622Z,12.18
2023-06-19T03:12:18.724Z,12.51
2023-06-19T03:13:18.860Z,12.57
2023-06-19T03:14:19.030Z,12.00
2023-06-19T03:15:19.056Z,11.77
2023-06-19T03:16:19.189Z,12.00
2023-06-19T03:17:19.382Z,12.56
2023-06-19T03:18:19.381Z,12.72
2023-06-19T03:19:19.482Z,11.89
2023-06-19T03:20:19.564Z,12.14
2023-06-19T03:21:20.394Z,12.85
2023-06-19T03:22:19.783Z,12.67
2023-06-19T03:23:20.378Z,11.79
2023-06-19T03:24:20.012Z,13.21
2023-06-19T03:25:20.137Z,12.18
2023-06-19T03:26:20.270Z,13.44
2023-06-19T03:27:20.391Z,13.25
2023-06-19T03:28:20.553Z,12.81
2023-06-19T03:29:20.725Z,11.65
2023-06-19T03:30:20.935Z,12.25
2023-06-19T03:31:21.079Z,12.38
2023-06-19T03:32:21.355Z,11.50
2023-06-19T03:33:21.417Z,12.54
2023-06-19T03:34:21.587Z,12.45
2023-06-19T03:35:21.775Z,12.81
2023-06-19T03:36:21.934Z,12.26
2023-06-19T03:37:22.066Z,12.70
2023-06-19T03:38:22.206Z,12.48
2023-06-19T03:39:22.363Z,12.33
2023-06-19T03:40:22.868Z,13.13
2023-06-19T03:41:22.714Z,12.83
2023-06-19T03:42:22.865Z,12.66
2023-06-19T03:43:23.030Z,13.16
2023-06-19T03:44:23.191Z,12.55
2023-06-19T03:45:23.312Z,13.12
2023-06-19T03:46:23.518Z,12.73
2023-06-19T03:47:23.636Z,12.39
2023-06-19T03:48:23.774Z,12.56
2023-06-19T03:49:23.902Z,12.61
2023-06-19T03:50:26.389Z,12.33
2023-06-19T03:51:24.135Z,12.91
2023-06-19T03:52:24.229Z,13.25
2023-06-19T03:53:24.319Z,12.97
2023-06-19T03:54:24.403Z,12.50
2023-06-19T03:55:24.512Z,12.13
2023-06-19T03:56:24.590Z,12.93
2023-06-19T03:57:24.692Z,11.72
2023-06-19T03:58:24.782Z,12.00
2023-06-19T03:59:24.883Z,13.26
2023-06-19T04:00:25.250Z,12.76
2023-06-19T04:01:25.088Z,12.30
2023-06-19T04:02:25.175Z,13.16
2023-06-19T04:03:25.301Z,12.98
2023-06-19T04:04:25.374Z,11.60
2023-06-19T04:05:25.439Z,12.42
2023-06-19T04:06:25.562Z,12.16
2023-06-19T04:07:25.643Z,12.30
2023-06-19T04:08:25.728Z,12.92
2023-06-19T04:09:25.835Z,13.44
2023-06-19T04:10:26.270Z,12.96
2023-06-19T04:11:26.034Z,12.31
2023-06-19T04:12:26.131Z,12.94
2023-06-19T04:13:26.289Z,13.50
2023-06-19T04:14:26.338Z,12.91
2023-06-19T04:15:26.481Z,12.28
2023-06-19T04:16:27.536Z,12.37
2023-06-19T04:17:26.696Z,11.88
2023-06-19T04:18:26.790Z,12.65
2023-06-19T04:19:27.914Z,12.55
2023-06-19T04:20:27.099Z,11.89
2023-06-19T04:21:27.128Z,11.88
2023-06-19T04:22:27.287Z,13.43
2023-06-19T04:23:27.290Z,11.79
2023-06-19T04:24:27.936Z,11.87
2023-06-19T04:25:27.469Z,12.18
2023-06-19T04:26:27.515Z,12.60
2023-06-19T04:27:27.586Z,10.50
2023-06-19T04:28:27.667Z,13.01
2023-06-19T04:29:27.745Z,12.79
2023-06-19T04:30:27.972Z,13.20
2023-06-19T04:31:27.938Z,13.58
2023-06-19T04:32:28.099Z,11.80
2023-06-19T04:33:29.122Z,12.83
2023-06-19T04:34:28.225Z,11.94
2023-06-19T04:35:28.316Z,13.21
2023-06-19T04:36:28.407Z,12.48
2023-06-19T04:37:28.485Z,11.52
2023-06-19T04:38:28.599Z,11.80
2023-06-19T04:39:28.624Z,12.03
2023-06-19T04:40:28.711Z,12.88
2023-06-19T04:41:28.798Z,11.39
2023-06-19T04:42:28.867Z,11.07
2023-06-19T04:43:30.417Z,12.92
2023-06-19T04:44:29.911Z,12.86
2023-06-19T04:45:29.103Z,11.87
2023-06-19T04:46:29.267Z,13.61
2023-06-19T04:47:39.784Z,12.44
2023-06-19T04:48:30.493Z,12.66
2023-06-19T04:49:29.426Z,12.72
2023-06-19T04:50:29.520Z,12.32
2023-06-19T04:51:29.616Z,12.58
2023-06-19T04:52:29.793Z,13.26
2023-06-19T04:53:29.801Z,13.18
2023-06-19T04:54:29.909Z,12.57
2023-06-19T04:55:29.994Z,13.11
2023-06-19T04:56:30.070Z,13.56
2023-06-19T04:57:30.183Z,12.60
2023-06-19T04:58:30.270Z,13.24
2023-06-19T04:59:30.365Z,12.63
2023-06-19T05:00:30.465Z,12.80
2023-06-19T05:01:30.572Z,11.95
2023-06-19T05:02:30.680Z,11.66
2023-06-19T05:03:30.764Z,12.14
2023-06-19T05:04:30.900Z,12.83
2023-06-19T05:05:30.966Z,12.44
2023-06-19T05:06:31.050Z,12.09
2023-06-19T05:07:31.159Z,12.08
2023-06-19T05:08:31.246Z,11.93
2023-06-19T05:09:31.917Z,11.01
2023-06-19T05:10:31.515Z,11.14
2023-06-19T05:11:31.632Z,12.14
2023-06-19T05:12:31.761Z,11.09
2023-06-19T05:13:31.896Z,11.18
2023-06-19T05:14:32.017Z,11.77
2023-06-19T05:15:32.145Z,11.91
2023-06-19T05:16:34.401Z,12.58
2023-06-19T05:17:32.409Z,12.52
2023-06-19T05:18:32.408Z,13.22
2023-06-19T05:19:32.467Z,11.68
2023-06-19T05:20:32.535Z,11.92
2023-06-19T05:21:32.608Z,12.82
2023-06-19T05:22:32.670Z,12.99
2023-06-19T05:23:32.724Z,13.65
2023-06-19T05:24:32.832Z,12.32
2023-06-19T05:25:32.851Z,13.39
2023-06-19T05:26:32.917Z,13.23
2023-06-19T05:27:32.976Z,11.94
2023-06-19T05:28:33.036Z,12.64
2023-06-19T05:29:33.083Z,12.85
2023-06-19T05:30:33.233Z,12.41
2023-06-19T05:31:33.203Z,12.98
2023-06-19T05:32:33.331Z,13.44
2023-06-19T05:33:33.310Z,13.28
2023-06-19T05:34:33.357Z,13.25
2023-06-19T05:35:33.419Z,11.66
2023-06-19T05:36:33.472Z,12.64
2023-06-19T05:37:33.507Z,12.29
2023-06-19T05:38:33.546Z,14.03
2023-06-19T05:39:33.585Z,12.13
2023-06-19T05:40:33.628Z,13.69
2023-06-19T05:41:33.692Z,14.02
2023-06-19T05:42:33.843Z,13.91
2023-06-19T05:43:34.948Z,14.58
2023-06-19T05:44:34.063Z,13.04
2023-06-19T05:45:34.147Z,13.89
2023-06-19T05:46:34.240Z,14.05
2023-06-19T05:47:34.363Z,13.43
2023-06-19T05:48:34.432Z,13.86
2023-06-19T05:49:34.531Z,15.03
2023-06-19T05:50:34.608Z,14.32
2023-06-19T05:51:34.683Z,12.67
2023-06-19T05:52:34.765Z,14.40
2023-06-19T05:53:34.844Z,13.48
2023-06-19T05:54:34.957Z,13.42
2023-06-19T05:55:35.068Z,13.53
2023-06-19T05:56:35.128Z,14.21
2023-06-19T05:57:35.289Z,13.68
2023-06-19T05:58:35.298Z,12.94
2023-06-19T05:59:35.455Z,13.53
2023-06-19T06:00:35.609Z,14.02
2023-06-19T06:01:35.574Z,13.41
2023-06-19T06:02:35.714Z,14.16
2023-06-19T06:03:35.792Z,13.58
2023-06-19T06:04:36.020Z,12.94
2023-06-19T06:05:35.960Z,13.14
2023-06-19T06:06:36.034Z,13.21
2023-06-19T06:07:36.558Z,12.55
2023-06-19T06:08:36.165Z,12.81
2023-06-19T06:09:36.258Z,13.07
2023-06-19T06:10:36.377Z,12.48
2023-06-19T06:11:36.530Z,12.64
2023-06-19T06:12:36.939Z,12.44
2023-06-19T06:13:36.799Z,12.54
2023-06-19T06:14:37.449Z,12.85
2023-06-19T06:15:36.909Z,12.32
2023-06-19T06:16:37.032Z,12.32
2023-06-19T06:17:37.113Z,12.62
2023-06-19T06:18:37.176Z,12.57
2023-06-19T06:19:37.360Z,12.51
2023-06-19T06:20:37.395Z,12.69
2023-06-19T06:21:37.516Z,12.38
2023-06-19T06:22:37.698Z,13.29
2023-06-19T06:23:37.778Z,12.31
2023-06-19T06:24:37.921Z,13.32
2023-06-19T06:25:37.982Z,12.77
2023-06-19T06:26:38.986Z,11.59
2023-06-19T06:27:38.132Z,12.76
2023-06-19T06:28:38.189Z,11.95
2023-06-19T06:29:39.331Z,12.35
2023-06-19T06:30:38.441Z,13.20
2023-06-19T06:31:38.509Z,12.67
2023-06-19T06:32:38.597Z,13.99
2023-06-19T06:33:38.683Z,12.23
2023-06-19T06:34:38.899Z,12.51
2023-06-19T06:35:39.086Z,11.29
2023-06-19T06:36:46.389Z,11.53
2023-06-19T06:37:40.286Z,11.86
2023-06-19T06:38:39.323Z,12.32
2023-06-19T06:39:39.345Z,12.04
2023-06-19T06:40:39.456Z,11.60
2023-06-19T06:41:39.420Z,12.17
2023-06-19T06:42:39.450Z,11.12
2023-06-19T06:43:39.481Z,11.68
2023-06-19T06:44:39.523Z,12.39
2023-06-19T06:45:39.660Z,12.28
2023-06-19T06:46:39.592Z,12.29
2023-06-19T06:47:39.692Z,11.46
2023-06-19T06:48:39.760Z,13.60
2023-06-19T06:49:39.852Z,12.72
2023-06-19T06:50:39.933Z,12.51
2023-06-19T06:51:40.017Z,13.18
2023-06-19T06:52:40.086Z,13.64
2023-06-19T06:53:40.959Z,12.75
2023-06-19T06:54:40.320Z,12.89
2023-06-19T06:55:40.343Z,12.11
2023-06-19T06:56:40.421Z,13.00
2023-06-19T06:57:40.477Z,13.21
2023-06-19T06:58:40.551Z,12.92
2023-06-19T06:59:40.594Z,12.17
2023-06-19T07:00:40.664Z,12.36
2023-06-19T07:01:40.713Z,12.33
2023-06-19T07:02:40.899Z,12.35
2023-06-19T07:03:40.886Z,12.09
2023-06-19T07:04:40.854Z,12.38
2023-06-19T07:05:40.914Z,13.92
2023-06-19T07:06:40.951Z,13.48
2023-06-19T07:07:41.028Z,12.42
2023-06-19T07:08:41.065Z,13.05
2023-06-19T07:09:41.182Z,12.86
2023-06-19T07:10:41.147Z,12.32
2023-06-19T07:11:41.207Z,13.15
2023-06-19T07:12:41.264Z,13.46
2023-06-19T07:13:41.379Z,13.28
2023-06-19T07:14:41.383Z,13.50
2023-06-19T07:15:41.435Z,13.99
2023-06-19T07:16:41.522Z,14.42
2023-06-19T07:17:41.671Z,14.09
2023-06-19T07:18:41.581Z,13.92
2023-06-19T07:19:41.612Z,13.65
2023-06-19T07:20:41.676Z,13.92
2023-06-19T07:21:41.760Z,14.69
2023-06-19T07:22:41.829Z,14.03
2023-06-19T07:23:42.480Z,15.47
2023-06-19T07:24:42.061Z,13.75
2023-06-19T07:25:41.989Z,14.44
2023-06-19T07:26:42.027Z,13.50
2023-06-19T07:27:42.108Z,15.00
2023-06-19T07:28:42.186Z,14.35
2023-06-19T07:29:42.170Z,14.30
2023-06-19T07:30:42.184Z,14.01
2023-06-19T07:31:42.198Z,14.17
2023-06-19T07:32:42.260Z,14.62
2023-06-19T07:33:42.234Z,14.94
2023-06-19T07:34:42.273Z,14.20
2023-06-19T07:35:42.343Z,13.99
2023-06-19T07:36:42.310Z,13.33
2023-06-19T07:37:42.381Z,13.37
2023-06-19T07:38:42.508Z,14.28
2023-06-19T07:39:42.495Z,15.26
2023-06-19T07:40:42.571Z,14.96
2023-06-19T07:41:42.582Z,14.63
2023-06-19T07:42:44.583Z,14.29
2023-06-19T07:43:42.737Z,13.72
2023-06-19T07:44:42.755Z,13.90
2023-06-19T07:45:42.839Z,13.83
2023-06-19T07:46:42.865Z,12.70
2023-06-19T07:47:42.960Z,14.42
2023-06-19T07:48:42.949Z,14.42
2023-06-19T07:49:43.120Z,13.83
2023-06-19T07:50:43.049Z,13.83
2023-06-19T07:51:43.142Z,13.86
2023-06-19T07:52:43.184Z,14.12
2023-06-19T07:53:43.224Z,14.22
2023-06-19T07:54:43.361Z,14.52
2023-06-19T07:55:43.234Z,15.01
2023-06-19T07:56:43.261Z,15.31
2023-06-19T07:57:43.301Z,13.24
2023-06-19T07:58:43.311Z,15.42
2023-06-19T07:59:43.474Z,14.89
2023-06-19T08:00:43.341Z,14.02
2023-06-19T08:01:43.378Z,14.01
2023-06-19T08:02:43.459Z,13.62
2023-06-19T08:03:43.446Z,14.02
2023-06-19T08:04:43.447Z,13.85
2023-06-19T08:05:43.438Z,13.66
2023-06-19T08:06:43.467Z,14.78
2023-06-19T08:07:43.485Z,13.09
2023-06-19T08:08:43.493Z,14.18
2023-06-19T08:09:43.507Z,13.88
2023-06-19T08:10:43.550Z,14.25
2023-06-19T08:11:43.554Z,14.59
2023-06-19T08:12:43.999Z,14.05
2023-06-19T08:13:43.556Z,14.95
2023-06-19T08:14:43.677Z,15.23
2023-06-19T08:15:44.455Z,14.36
2023-06-19T08:16:43.662Z,13.57
2023-06-19T08:17:43.672Z,13.94
2023-06-19T08:18:43.679Z,12.96
2023-06-19T08:19:43.614Z,13.26
2023-06-19T08:20:43.611Z,14.18
2023-06-19T08:21:43.582Z,13.53
2023-06-19T08:22:43.570Z,13.85
2023-06-19T08:23:43.547Z,13.02
2023-06-19T08:24:43.568Z,13.34
2023-06-19T08:25:43.529Z,13.26
2023-06-19T08:26:43.551Z,13.49
2023-06-19T08:27:43.472Z,12.46
2023-06-19T08:28:43.450Z,11.97
2023-06-19T08:29:43.444Z,12.65
2023-06-19T08:30:43.441Z,11.91
2023-06-19T08:31:43.466Z,12.04
2023-06-19T08:32:43.530Z,12.06
2023-06-19T08:33:44.423Z,12.63
2023-06-19T08:34:43.589Z,12.97
2023-06-19T08:35:43.548Z,14.12
2023-06-19T08:36:44.508Z,13.16
2023-06-19T08:37:43.595Z,13.92
2023-06-19T08:38:44.418Z,13.19
2023-06-19T08:39:43.636Z,12.49
2023-06-19T08:40:43.658Z,12.60
2023-06-19T08:41:43.759Z,12.68
2023-06-19T08:42:43.710Z,12.77
2023-06-19T08:43:43.712Z,12.04
2023-06-19T08:44:43.719Z,13.22
2023-06-19T08:45:43.784Z,11.90
2023-06-19T08:46:43.783Z,12.71
2023-06-19T08:47:43.790Z,11.49
2023-06-19T08:48:43.786Z,13.26
2023-06-19T08:49:43.817Z,12.34
2023-06-19T08:50:44.770Z,12.33
2023-06-19T08:51:43.754Z,13.18
2023-06-19T08:52:43.725Z,12.10
2023-06-19T08:53:43.710Z,12.53
2023-06-19T08:54:43.684Z,12.08
2023-06-19T08:55:44.015Z,12.00
2023-06-19T08:56:43.637Z,11.26
2023-06-19T08:57:43.615Z,12.54
2023-06-19T08:58:43.562Z,11.74
2023-06-19T08:59:43.564Z,12.03
2023-06-19T09:00:43.573Z,11.10
2023-06-19T09:01:43.570Z,11.24
2023-06-19T09:02:43.675Z,11.51
2023-06-19T09:03:43.676Z,10.54
2023-06-19T09:04:43.613Z,10.49
2023-06-19T09:05:46.772Z,11.08
2023-06-19T09:06:43.652Z,10.09
2023-06-19T09:07:43.538Z,9.96
2023-06-19T09:08:43.491Z,10.34
2023-06-19T09:09:43.449Z,9.70
2023-06-19T09:10:43.401Z,10.24
2023-06-19T09:11:43.351Z,9.97
2023-06-19T09:12:43.387Z,11.22
2023-06-19T09:13:43.269Z,10.47
2023-06-19T09:14:43.224Z,10.23
2023-06-19T09:15:43.172Z,10.23
2023-06-19T09:16:43.140Z,10.45
2023-06-19T09:17:43.150Z,10.23
2023-06-19T09:18:43.059Z,10.37
2023-06-19T09:19:43.004Z,9.35
2023-06-19T09:20:43.026Z,9.57
2023-06-19T09:21:44.021Z,10.55
2023-06-19T09:22:42.859Z,9.95
2023-06-19T09:23:42.822Z,10.77
2023-06-19T09:24:42.916Z,10.19
2023-06-19T09:25:42.920Z,10.49
2023-06-19T09:26:42.726Z,9.71
2023-06-19T09:27:42.757Z,9.81
2023-06-19T09:28:42.802Z,10.42
2023-06-19T09:29:42.827Z,9.92
2023-06-19T09:30:42.805Z,10.08
2023-06-19T09:31:42.812Z,9.32
2023-06-19T09:32:42.880Z,9.89
2023-06-19T09:33:42.861Z,9.26
2023-06-19T09:34:42.726Z,10.20
2023-06-19T09:35:42.690Z,10.59
2023-06-19T09:36:42.668Z,9.94
2023-06-19T09:37:42.677Z,10.10
2023-06-19T09:38:42.636Z,10.47
2023-06-19T09:39:42.596Z,9.92
2023-06-19T09:40:42.552Z,10.35
2023-06-19T09:41:42.677Z,10.31
2023-06-19T09:42:42.491Z,10.11
2023-06-19T09:43:42.469Z,9.64
2023-06-19T09:44:46.103Z,9.26
2023-06-19T09:45:43.045Z,10.32
2023-06-19T09:46:42.331Z,10.06
2023-06-19T09:47:42.324Z,9.81
2023-06-19T09:48:42.178Z,9.51
2023-06-19T09:49:42.109Z,9.68
2023-06-19T09:50:42.043Z,10.38
2023-06-19T09:51:41.974Z,9.31
2023-06-19T09:52:41.909Z,10.39
2023-06-19T09:53:41.890Z,10.20
2023-06-19T09:54:41.770Z,9.94
2023-06-19T09:55:41.722Z,9.79
2023-06-19T09:56:41.661Z,10.10
2023-06-19T09:57:41.623Z,9.16
2023-06-19T09:58:41.535Z,9.46
2023-06-19T09:59:41.502Z,9.82
2023-06-19T10:00:41.417Z,10.35
2023-06-19T10:01:41.339Z,10.56
2023-06-19T10:02:41.354Z,9.39
2023-06-19T10:03:41.300Z,10.18
2023-06-19T10:04:41.159Z,9.94
2023-06-19T10:05:41.095Z,10.22
2023-06-19T10:06:41.030Z,9.83
2023-06-19T10:07:40.983Z,9.29
2023-06-19T10:08:40.922Z,9.67
2023-06-19T10:09:40.988Z,9.54
2023-06-19T10:10:40.762Z,10.21
2023-06-19T10:11:40.686Z,9.65
2023-06-19T10:12:40.616Z,9.78
2023-06-19T10:13:40.585Z,9.81
2023-06-19T10:14:40.480Z,9.87
2023-06-19T10:15:40.485Z,9.72
2023-06-19T10:16:40.405Z,9.78
2023-06-19T10:17:40.277Z,9.00
2023-06-19T10:18:40.157Z,9.31
2023-06-19T10:19:40.078Z,8.98
2023-06-19T10:20:46.371Z,8.81
2023-06-19T10:21:40.994Z,8.94
2023-06-19T10:22:39.884Z,9.69
2023-06-19T10:23:39.882Z,9.02
2023-06-19T10:24:39.843Z,9.34
2023-06-19T10:25:39.683Z,9.32
2023-06-19T10:26:39.591Z,8.94
2023-06-19T10:27:39.536Z,9.47
2023-06-19T10:28:39.437Z,8.56
2023-06-19T10:29:39.424Z,9.99
2023-06-19T10:30:39.324Z,8.31
2023-06-19T10:31:39.188Z,9.41
2023-06-19T10:32:39.125Z,8.70
2023-06-19T10:33:39.016Z,8.94
2023-06-19T10:34:39.573Z,9.75
2023-06-19T10:35:38.842Z,9.35
2023-06-19T10:36:38.758Z,8.63
2023-06-19T10:37:38.753Z,8.30
2023-06-19T10:38:38.634Z,8.65
2023-06-19T10:39:38.574Z,8.08
2023-06-19T10:40:38.553Z,8.83
2023-06-19T10:41:38.524Z,8.79
2023-06-19T10:42:38.484Z,8.55
2023-06-19T10:43:38.981Z,8.59
2023-06-19T10:44:38.442Z,8.08
2023-06-19T10:45:38.453Z,8.46
2023-06-19T10:46:38.413Z,8.61
2023-06-19T10:47:38.353Z,9.25
2023-06-19T10:48:38.445Z,8.70
2023-06-19T10:49:38.314Z,8.41
2023-06-19T10:50:38.257Z,8.35
2023-06-19T10:51:38.219Z,8.72
2023-06-19T10:52:38.274Z,7.96
2023-06-19T10:53:38.146Z,8.11
2023-06-19T10:54:38.108Z,8.38
2023-06-19T10:55:38.057Z,8.40
2023-06-19T10:56:38.019Z,8.42
2023-06-19T10:57:38.008Z,8.51
2023-06-19T10:58:37.910Z,7.76
2023-06-19T10:59:37.850Z,8.40
2023-06-19T11:00:37.791Z,8.45
2023-06-19T11:01:37.819Z,8.47
2023-06-19T11:02:37.839Z,7.30
2023-06-19T11:03:37.712Z,7.95
2023-06-19T11:04:37.648Z,7.56
2023-06-19T11:05:37.621Z,7.36
2023-06-19T11:06:37.584Z,8.49
2023-06-19T11:07:37.525Z,8.38
2023-06-19T11:08:37.502Z,8.51
2023-06-19T11:09:37.471Z,8.30
2023-06-19T11:10:37.432Z,7.14
2023-06-19T11:11:37.385Z,8.49
2023-06-19T11:12:37.360Z,9.12
2023-06-19T11:13:37.323Z,8.68
2023-06-19T11:14:37.309Z,7.74
2023-06-19T11:15:37.280Z,8.01
2023-06-19T11:16:37.277Z,8.58
2023-06-19T11:17:37.215Z,8.37
2023-06-19T11:18:37.148Z,8.91
2023-06-19T11:19:37.113Z,8.92
2023-06-19T11:20:37.129Z,8.60
2023-06-19T11:21:37.025Z,7.38
2023-06-19T11:22:36.991Z,8.14
2023-06-19T11:23:37.048Z,8.49
2023-06-19T11:24:36.982Z,8.07
2023-06-19T11:25:36.839Z,8.14
2023-06-19T11:26:36.792Z,8.72
2023-06-19T11:27:36.858Z,7.40
2023-06-19T11:28:37.581Z,8.24
2023-06-19T11:29:36.661Z,8.58
2023-06-19T11:30:37.594Z,7.45
2023-06-19T11:31:36.493Z,7.64
2023-06-19T11:32:36.471Z,7.26
2023-06-19T11:33:36.329Z,8.43
2023-06-19T11:34:36.227Z,7.25
2023-06-19T11:35:36.145Z,8.14
2023-06-19T11:36:36.071Z,8.56
2023-06-19T11:37:36.009Z,8.16
2023-06-19T11:38:35.909Z,7.62
2023-06-19T11:39:35.832Z,6.93
2023-06-19T11:40:35.776Z,8.40
2023-06-19T11:41:35.755Z,8.01
2023-06-19T11:42:35.744Z,9.25
2023-06-19T11:43:35.691Z,8.07
2023-06-19T11:44:36.814Z,8.12
2023-06-19T11:45:35.584Z,8.53
2023-06-19T11:46:35.569Z,8.05
2023-06-19T11:47:35.511Z,7.29
2023-06-19T11:48:35.422Z,7.99
2023-06-19T11:49:35.353Z,8.34
2023-06-19T11:50:35.288Z,8.29
2023-06-19T11:51:35.149Z,7.33
2023-06-19T11:52:35.101Z,8.14
2023-06-19T11:53:35.011Z,8.35
2023-06-19T11:54:35.172Z,6.70
2023-06-19T11:55:36.188Z,8.53
2023-06-19T11:56:35.225Z,7.19
2023-06-19T11:57:35.130Z,7.70
2023-06-19T11:58:35.033Z,7.23
2023-06-19T11:59:34.936Z,7.83
2023-06-19T12:00:34.849Z,7.10
2023-06-19T12:01:34.726Z,7.19
2023-06-19T12:02:35.215Z,8.11
2023-06-19T12:03:34.636Z,6.67
2023-06-19T12:04:35.166Z,7.45
2023-06-19T12:05:34.428Z,8.09
2023-06-19T12:06:34.373Z,6.86
2023-06-19T12:07:34.331Z,7.89
2023-06-19T12:08:34.281Z,7.63
2023-06-19T12:09:34.242Z,7.31
2023-06-19T12:10:34.155Z,7.43
2023-06-19T12:11:34.107Z,7.80
2023-06-19T12:12:34.033Z,7.01
2023-06-19T12:13:33.973Z,7.11
2023-06-19T12:14:33.918Z,6.88
2023-06-19T12:15:35.424Z,7.61
2023-06-19T12:16:33.763Z,6.80
2023-06-19T12:17:33.646Z,7.14
2023-06-19T12:18:33.503Z,6.97
2023-06-19T12:19:33.436Z,7.38
2023-06-19T12:20:33.292Z,7.28
2023-06-19T12:21:38.637Z,7.73
2023-06-19T12:22:34.055Z,7.14
2023-06-19T12:23:32.942Z,6.95
2023-06-19T12:24:32.915Z,7.51
2023-06-19T12:25:32.752Z,6.93
2023-06-19T12:26:32.604Z,7.12
2023-06-19T12:27:32.639Z,7.81
2023-06-19T12:28:32.401Z,7.39
2023-06-19T12:29:32.298Z,7.48
2023-06-19T12:30:32.206Z,7.65
2023-06-19T12:31:32.067Z,8.62
2023-06-19T12:32:32.113Z,6.60
2023-06-19T12:33:31.872Z,7.05
2023-06-19T12:34:32.106Z,7.72
2023-06-19T12:35:31.697Z,8.10
2023-06-19T12:36:31.549Z,8.37
2023-06-19T12:37:31.453Z,7.22
2023-06-19T12:38:31.358Z,7.22
2023-06-19T12:39:31.313Z,8.03
2023-06-19T12:40:31.148Z,7.92
2023-06-19T12:41:31.057Z,7.82
2023-06-19T12:42:30.950Z,7.68
2023-06-19T12:43:30.958Z,7.85
2023-06-19T12:44:30.801Z,6.89
2023-06-19T12:45:30.769Z,7.72
2023-06-19T12:46:30.787Z,8.53
2023-06-19T12:47:30.766Z,7.95
2023-06-19T12:48:30.551Z,8.05
2023-06-19T12:49:30.495Z,7.79
2023-06-19T12:50:30.383Z,7.28
2023-06-19T12:51:30.378Z,8.02
2023-06-19T12:52:30.577Z,7.20
2023-06-19T12:53:30.749Z,7.03
2023-06-19T12:54:30.861Z,7.32
2023-06-19T12:55:31.615Z,7.48
2023-06-19T12:56:30.937Z,6.97
2023-06-19T12:57:30.878Z,7.37
2023-06-19T12:58:30.868Z,7.24
2023-06-19T12:59:30.770Z,7.54
2023-06-19T13:00:30.721Z,6.58